sensor_id;sensor_type;location;lat;lon;timestamp;temperature;humidity
10441;DHT22;5268;49.346;9.522;2023-06-24T03:08:23;15.60;99.90
10441;DHT22;5268;49.346;9.522;2023-06-24T03:13:26;15.60;99.90
10441;DHT22;5268;49.346;9.522;2023-06-24T03:18:28;15.50;99.90
10441;DHT22;5268;49.346;9.522;2023-06-24T03:23:31;15.50;99.90
10441;DHT22;5268;49.346;9.522;2023-06-24T03:28:33;15.40;99.90
10441;DHT22;5268;49.346;9.522;2023-06-24T03:33:35;15.40;99.90
10441;DHT22;5268;49.346;9.522;2023-06-24T03:38:38;15.30;99.90
10441;DHT22;5268;49.346;9.522;2023-06-24T03:43:41;15.30;99.90
10441;DHT22;5268;49.346;9.522;2023-06-24T03:48:44;15.30;99.90
10441;DHT22;5268;49.346;9.522;2023-06-24T03:53:47;15.30;99.90
10441;DHT22;5268;49.346;9.522;2023-06-24T03:58:50;15.30;99.90
10441;DHT22;5268;49.346;9.522;2023-06-24T04:03:52;15.30;99.90
10441;DHT22;5268;49.346;9.522;2023-06-24T04:08:56;15.30;99.90
10441;DHT22;5268;49.346;9.522;2023-06-24T04:13:59;15.30;99.90
10441;DHT22;5268;49.346;9.522;2023-06-24T04:19:01;15.30;99.90
10441;DHT22;5268;49.346;9.522;2023-06-24T04:24:05;15.40;99.90
10441;DHT22;5268;49.346;9.522;2023-06-24T04:29:07;15.40;99.90
10441;DHT22;5268;49.346;9.522;2023-06-24T04:34:09;15.40;99.90
10441;DHT22;5268;49.346;9.522;2023-06-24T04:39:12;15.50;99.90
10441;DHT22;5268;49.346;9.522;2023-06-24T04:44:14;15.50;99.90
10441;DHT22;5268;49.346;9.522;2023-06-24T04:49:16;15.60;99.90
10441;DHT22;5268;49.346;9.522;2023-06-24T04:54:19;15.70;99.90
10441;DHT22;5268;49.346;9.522;2023-06-24T04:59:21;15.70;99.90
10441;DHT22;5268;49.346;9.522;2023-06-24T05:04:23;15.80;99.90
10441;DHT22;5268;49.346;9.522;2023-06-24T05:09:27;15.80;99.90
10441;DHT22;5268;49.346;9.522;2023-06-24T05:14:28;15.90;99.90
10441;DHT22;5268;49.346;9.522;2023-06-24T05:19:30;16.00;99.90
10441;DHT22;5268;49.346;9.522;2023-06-24T05:24:34;16.30;99.90
10441;DHT22;5268;49.346;9.522;2023-06-24T05:29:36;16.80;99.90
10441;DHT22;5268;49.346;9.522;2023-06-24T05:34:38;17.30;99.90
10441;DHT22;5268;49.346;9.522;2023-06-24T05:39:41;17.70;99.90
10441;DHT22;5268;49.346;9.522;2023-06-24T05:44:43;18.00;99.90
10441;DHT22;5268;49.346;9.522;2023-06-24T05:49:45;18.20;99.90
10441;DHT22;5268;49.346;9.522;2023-06-24T05:54:48;18.50;99.90
10441;DHT22;5268;49.346;9.522;2023-06-24T05:59:50;18.70;99.90
10441;DHT22;5268;49.346;9.522;2023-06-24T06:04:52;19.00;99.90
10441;DHT22;5268;49.346;9.522;2023-06-24T06:09:56;19.10;99.90
10441;DHT22;5268;49.346;9.522;2023-06-24T06:14:58;19.40;99.90
10441;DHT22;5268;49.346;9.522;2023-06-24T06:20:01;19.70;99.90
10441;DHT22;5268;49.346;9.522;2023-06-24T06:25:06;19.90;99.90
10441;DHT22;5268;49.346;9.522;2023-06-24T06:30:09;20.10;99.90
10441;DHT22;5268;49.346;9.522;2023-06-24T06:35:11;20.30;99.90
10441;DHT22;5268;49.346;9.522;2023-06-24T06:40:14;20.60;99.90
10441;DHT22;5268;49.346;9.522;2023-06-24T06:45:16;20.90;99.90
10441;DHT22;5268;49.346;9.522;2023-06-24T06:50:18;21.30;99.90
10441;DHT22;5268;49.346;9.522;2023-06-24T06:55:22;21.60;99.90
10441;DHT22;5268;49.346;9.522;2023-06-24T07:00:24;22.00;99.90
10441;DHT22;5268;49.346;9.522;2023-06-24T07:05:26;22.30;99.90
10441;DHT22;5268;49.346;9.522;2023-06-24T07:10:29;22.70;99.90
10441;DHT22;5268;49.346;9.522;2023-06-24T07:15:31;22.80;99.90
10441;DHT22;5268;49.346;9.522;2023-06-24T07:20:33;22.90;99.90
10441;DHT22;5268;49.346;9.522;2023-06-24T07:25:36;23.10;99.90
10441;DHT22;5268;49.346;9.522;2023-06-24T07:30:41;23.40;99.90
10441;DHT22;5268;49.346;9.522;2023-06-24T07:35:43;23.70;99.90
10441;DHT22;5268;49.346;9.522;2023-06-24T07:40:46;24.10;99.90
10441;DHT22;5268;49.346;9.522;2023-06-24T07:45:48;24.40;99.90
10441;DHT22;5268;49.346;9.522;2023-06-24T07:50:50;24.50;99.90
10441;DHT22;5268;49.346;9.522;2023-06-24T07:55:53;24.70;99.90
10441;DHT22;5268;49.346;9.522;2023-06-24T08:00:55;24.90;99.90
10441;DHT22;5268;49.346;9.522;2023-06-24T08:05:57;25.10;99.90
10441;DHT22;5268;49.346;9.522;2023-06-24T08:11:00;25.40;99.90
10441;DHT22;5268;49.346;9.522;2023-06-24T08:16:02;25.60;99.90
10441;DHT22;5268;49.346;9.522;2023-06-24T08:21:04;26.00;99.90
10441;DHT22;5268;49.346;9.522;2023-06-24T08:26:08;26.30;99.90
10441;DHT22;5268;49.346;9.522;2023-06-24T08:31:10;26.50;99.90
10441;DHT22;5268;49.346;9.522;2023-06-24T08:36:12;26.50;99.90
10441;DHT22;5268;49.346;9.522;2023-06-24T08:41:15;26.60;99.90
10441;DHT22;5268;49.346;9.522;2023-06-24T08:46:18;26.80;99.90
10441;DHT22;5268;49.346;9.522;2023-06-24T08:51:24;27.10;99.90
10441;DHT22;5268;49.346;9.522;2023-06-24T08:56:30;27.30;99.90
10441;DHT22;5268;49.346;9.522;2023-06-24T09:01:33;27.60;99.90
10441;DHT22;5268;49.346;9.522;2023-06-24T09:06:34;27.70;99.90
10441;DHT22;5268;49.346;9.522;2023-06-24T09:11:38;27.50;99.90
10441;DHT22;5268;49.346;9.522;2023-06-24T09:16:40;27.30;99.90
10441;DHT22;5268;49.346;9.522;2023-06-24T09:21:45;27.00;99.90
10441;DHT22;5268;49.346;9.522;2023-06-24T09:26:48;27.00;99.90
10441;DHT22;5268;49.346;9.522;2023-06-24T09:31:50;27.40;99.90
10441;DHT22;5268;49.346;9.522;2023-06-24T09:36:56;27.80;99.90
10441;DHT22;5268;49.346;9.522;2023-06-24T09:42:00;28.20;99.90
10441;DHT22;5268;49.346;9.522;2023-06-24T09:47:03;28.30;99.90
10441;DHT22;5268;49.346;9.522;2023-06-24T09:52:06;28.50;99.90
10441;DHT22;5268;49.346;9.522;2023-06-24T09:57:09;28.60;99.90
10441;DHT22;5268;49.346;9.522;2023-06-24T10:02:13;28.80;99.90
10441;DHT22;5268;49.346;9.522;2023-06-24T10:07:16;28.80;99.20
10441;DHT22;5268;49.346;9.522;2023-06-24T10:12:20;28.90;99.90
10441;DHT22;5268;49.346;9.522;2023-06-24T10:17:22;29.00;99.90
10441;DHT22;5268;49.346;9.522;2023-06-24T10:22:25;28.80;99.90
10441;DHT22;5268;49.346;9.522;2023-06-24T10:27:38;28.00;88.60
10441;DHT22;5268;49.346;9.522;2023-06-24T10:32:42;28.30;99.90
10441;DHT22;5268;49.346;9.522;2023-06-24T10:37:54;28.10;93.80
10441;DHT22;5268;49.346;9.522;2023-06-24T10:43:00;28.30;95.60
10441;DHT22;5268;49.346;9.522;2023-06-24T10:48:02;28.50;98.80
10441;DHT22;5268;49.346;9.522;2023-06-24T10:53:08;28.30;91.30
10441;DHT22;5268;49.346;9.522;2023-06-24T10:58:13;28.30;97.50
10441;DHT22;5268;49.346;9.522;2023-06-24T11:03:16;28.50;98.70
10441;DHT22;5268;49.346;9.522;2023-06-24T11:08:20;28.80;98.70
10441;DHT22;5268;49.346;9.522;2023-06-24T11:13:23;28.90;94.70
10441;DHT22;5268;49.346;9.522;2023-06-24T11:18:25;28.90;96.30
10441;DHT22;5268;49.346;9.522;2023-06-24T11:23:27;28.90;94.40
10441;DHT22;5268;49.346;9.522;2023-06-24T11:28:31;29.30;98.90
10441;DHT22;5268;49.346;9.522;2023-06-24T11:33:33;29.20;88.00
10441;DHT22;5268;49.346;9.522;2023-06-24T11:38:36;29.20;94.80
10441;DHT22;5268;49.346;9.522;2023-06-24T11:43:43;28.70;91.10
10441;DHT22;5268;49.346;9.522;2023-06-24T11:48:46;28.90;95.30
10441;DHT22;5268;49.346;9.522;2023-06-24T11:53:47;28.90;95.20
10441;DHT22;5268;49.346;9.522;2023-06-24T11:58:51;29.20;96.70
10441;DHT22;5268;49.346;9.522;2023-06-24T12:03:55;29.50;96.50
10441;DHT22;5268;49.346;9.522;2023-06-24T12:08:57;29.70;96.50
10441;DHT22;5268;49.346;9.522;2023-06-24T12:14:00;30.00;97.30
10441;DHT22;5268;49.346;9.522;2023-06-24T12:19:02;30.20;97.10
10441;DHT22;5268;49.346;9.522;2023-06-24T12:24:05;30.40;97.20
10441;DHT22;5268;49.346;9.522;2023-06-24T12:29:08;30.60;97.60
10441;DHT22;5268;49.346;9.522;2023-06-24T12:34:10;30.70;97.00
10441;DHT22;5268;49.346;9.522;2023-06-24T12:39:12;30.70;96.60
10441;DHT22;5268;49.346;9.522;2023-06-24T12:44:15;30.40;90.20
10441;DHT22;5268;49.346;9.522;2023-06-24T12:49:17;30.30;93.20
10441;DHT22;5268;49.346;9.522;2023-06-24T12:54:19;30.30;93.70
10441;DHT22;5268;49.346;9.522;2023-06-24T12:59:23;30.00;93.10
10441;DHT22;5268;49.346;9.522;2023-06-24T13:04:25;29.90;92.00
10441;DHT22;5268;49.346;9.522;2023-06-24T13:09:27;29.80;92.70
10441;DHT22;5268;49.346;9.522;2023-06-24T13:14:31;28.90;75.30
10441;DHT22;5268;49.346;9.522;2023-06-24T13:19:33;29.20;90.00
10441;DHT22;5268;49.346;9.522;2023-06-24T13:24:35;29.40;91.10
10441;DHT22;5268;49.346;9.522;2023-06-24T13:29:39;29.50;90.80
10441;DHT22;5268;49.346;9.522;2023-06-24T13:34:41;29.60;88.30
10441;DHT22;5268;49.346;9.522;2023-06-24T13:39:44;29.40;81.90
10441;DHT22;5268;49.346;9.522;2023-06-24T13:44:49;29.20;81.50
10441;DHT22;5268;49.346;9.522;2023-06-24T13:49:51;29.20;89.80
10441;DHT22;5268;49.346;9.522;2023-06-24T13:54:53;29.50;91.80
10441;DHT22;5268;49.346;9.522;2023-06-24T13:59:56;29.80;91.70
10441;DHT22;5268;49.346;9.522;2023-06-24T14:04:58;30.00;91.70
10441;DHT22;5268;49.346;9.522;2023-06-24T14:10:00;30.10;90.60
10441;DHT22;5268;49.346;9.522;2023-06-24T14:15:04;30.20;89.60
10441;DHT22;5268;49.346;9.522;2023-06-24T14:20:08;29.50;69.20
10441;DHT22;5268;49.346;9.522;2023-06-24T14:25:10;29.30;82.60
10441;DHT22;5268;49.346;9.522;2023-06-24T14:30:14;29.00;74.60
10441;DHT22;5268;49.346;9.522;2023-06-24T14:35:16;29.10;81.70
10441;DHT22;5268;49.346;9.522;2023-06-24T14:40:17;29.30;85.00
10441;DHT22;5268;49.346;9.522;2023-06-24T14:45:21;29.50;76.30
10441;DHT22;5268;49.346;9.522;2023-06-24T14:50:23;29.50;84.60
10441;DHT22;5268;49.346;9.522;2023-06-24T14:55:25;29.50;86.20
10441;DHT22;5268;49.346;9.522;2023-06-24T15:00:29;29.40;79.40
10441;DHT22;5268;49.346;9.522;2023-06-24T15:05:31;29.10;77.90
10441;DHT22;5268;49.346;9.522;2023-06-24T15:10:34;29.20;77.40
10441;DHT22;5268;49.346;9.522;2023-06-24T15:15:38;29.20;82.60
10441;DHT22;5268;49.346;9.522;2023-06-24T15:20:39;28.80;72.30
10441;DHT22;5268;49.346;9.522;2023-06-24T15:25:42;28.90;83.90
10441;DHT22;5268;49.346;9.522;2023-06-24T15:30:45;28.90;70.90
10441;DHT22;5268;49.346;9.522;2023-06-24T15:35:47;28.90;81.40
10441;DHT22;5268;49.346;9.522;2023-06-24T15:40:49;29.00;84.30
10441;DHT22;5268;49.346;9.522;2023-06-24T15:45:53;29.20;85.60
10441;DHT22;5268;49.346;9.522;2023-06-24T15:50:55;29.30;85.30
10441;DHT22;5268;49.346;9.522;2023-06-24T15:55:57;29.00;71.70
10441;DHT22;5268;49.346;9.522;2023-06-24T16:01:01;28.90;82.70
10441;DHT22;5268;49.346;9.522;2023-06-24T16:06:03;28.50;74.20
10441;DHT22;5268;49.346;9.522;2023-06-24T16:11:05;28.80;84.30
10441;DHT22;5268;49.346;9.522;2023-06-24T16:16:10;28.70;77.90
10441;DHT22;5268;49.346;9.522;2023-06-24T16:21:12;28.70;79.80
10441;DHT22;5268;49.346;9.522;2023-06-24T16:26:14;28.80;81.90
10441;DHT22;5268;49.346;9.522;2023-06-24T16:31:18;28.80;83.80
10441;DHT22;5268;49.346;9.522;2023-06-24T16:36:21;28.80;83.90
10441;DHT22;5268;49.346;9.522;2023-06-24T16:41:23;28.80;84.00
10441;DHT22;5268;49.346;9.522;2023-06-24T16:46:26;28.60;80.60
10441;DHT22;5268;49.346;9.522;2023-06-24T16:51:28;28.50;73.00
10441;DHT22;5268;49.346;9.522;2023-06-24T16:56:30;28.30;73.00
10441;DHT22;5268;49.346;9.522;2023-06-24T17:01:34;28.20;78.10
10441;DHT22;5268;49.346;9.522;2023-06-24T17:06:35;28.30;81.80
10441;DHT22;5268;49.346;9.522;2023-06-24T17:11:38;28.30;83.00
10441;DHT22;5268;49.346;9.522;2023-06-24T17:16:41;28.30;84.90
10441;DHT22;5268;49.346;9.522;2023-06-24T17:21:43;28.30;84.10
10441;DHT22;5268;49.346;9.522;2023-06-24T17:26:45;28.30;83.20
10441;DHT22;5268;49.346;9.522;2023-06-24T17:31:48;28.30;84.00
10441;DHT22;5268;49.346;9.522;2023-06-24T17:36:50;28.20;85.80
10441;DHT22;5268;49.346;9.522;2023-06-24T17:41:52;28.10;83.80
10441;DHT22;5268;49.346;9.522;2023-06-24T17:46:55;28.10;85.50
10441;DHT22;5268;49.346;9.522;2023-06-24T17:51:57;28.10;85.00
10441;DHT22;5268;49.346;9.522;2023-06-24T17:56:59;28.00;84.40
10441;DHT22;5268;49.346;9.522;2023-06-24T18:02:03;28.00;84.20
10441;DHT22;5268;49.346;9.522;2023-06-24T18:07:05;27.90;85.70
10441;DHT22;5268;49.346;9.522;2023-06-24T18:12:08;27.90;86.40
10441;DHT22;5268;49.346;9.522;2023-06-24T18:17:11;27.80;87.00
10441;DHT22;5268;49.346;9.522;2023-06-24T18:22:13;27.80;87.80
10441;DHT22;5268;49.346;9.522;2023-06-24T18:27:15;27.80;86.70
10441;DHT22;5268;49.346;9.522;2023-06-24T18:32:20;27.80;87.70
10441;DHT22;5268;49.346;9.522;2023-06-24T18:37:23;27.70;88.10
10441;DHT22;5268;49.346;9.522;2023-06-24T18:42:25;27.60;88.20
10441;DHT22;5268;49.346;9.522;2023-06-24T18:47:28;27.40;86.80
10441;DHT22;5268;49.346;9.522;2023-06-24T18:52:30;27.20;87.80
10441;DHT22;5268;49.346;9.522;2023-06-24T18:57:32;26.90;88.50
10441;DHT22;5268;49.346;9.522;2023-06-24T19:02:35;26.80;88.70
10441;DHT22;5268;49.346;9.522;2023-06-24T19:07:37;26.60;89.20
10441;DHT22;5268;49.346;9.522;2023-06-24T19:12:39;26.50;89.50
10441;DHT22;5268;49.346;9.522;2023-06-24T19:17:43;26.30;89.60
10441;DHT22;5268;49.346;9.522;2023-06-24T19:22:44;26.20;89.70
10441;DHT22;5268;49.346;9.522;2023-06-24T19:27:46;26.00;89.90
10441;DHT22;5268;49.346;9.522;2023-06-24T19:32:50;25.80;90.00
10441;DHT22;5268;49.346;9.522;2023-06-24T19:37:52;25.70;90.10
10441;DHT22;5268;49.346;9.522;2023-06-24T19:42:53;25.50;90.70
10441;DHT22;5268;49.346;9.522;2023-06-24T19:47:57;25.20;90.50
10441;DHT22;5268;49.346;9.522;2023-06-24T19:52:59;25.10;90.60
10441;DHT22;5268;49.346;9.522;2023-06-24T19:58:01;24.90;90.70
10441;DHT22;5268;49.346;9.522;2023-06-24T20:03:04;24.70;90.90
10441;DHT22;5268;49.346;9.522;2023-06-24T20:08:06;24.50;91.00
10441;DHT22;5268;49.346;9.522;2023-06-24T20:13:08;24.40;91.00
10441;DHT22;5268;49.346;9.522;2023-06-24T20:18:13;24.20;91.20
10441;DHT22;5268;49.346;9.522;2023-06-24T20:23:15;24.10;91.70
10441;DHT22;5268;49.346;9.522;2023-06-24T20:28:17;23.90;91.80
10441;DHT22;5268;49.346;9.522;2023-06-24T20:33:21;23.70;91.60
10441;DHT22;5268;49.346;9.522;2023-06-24T20:38:24;23.60;92.40
10441;DHT22;5268;49.346;9.522;2023-06-24T20:43:26;23.40;92.40
10441;DHT22;5268;49.346;9.522;2023-06-24T20:48:30;23.30;92.50
10441;DHT22;5268;49.346;9.522;2023-06-24T20:53:32;23.10;92.50
10441;DHT22;5268;49.346;9.522;2023-06-24T20:58:34;23.00;92.60
10441;DHT22;5268;49.346;9.522;2023-06-24T21:03:38;22.80;92.80
10441;DHT22;5268;49.346;9.522;2023-06-24T21:08:40;22.70;92.70
10441;DHT22;5268;49.346;9.522;2023-06-24T21:13:42;22.60;92.90
10441;DHT22;5268;49.346;9.522;2023-06-24T21:18:45;22.50;93.00
10441;DHT22;5268;49.346;9.522;2023-06-24T21:23:47;22.30;93.40
10441;DHT22;5268;49.346;9.522;2023-06-24T21:28:49;22.10;93.00
10441;DHT22;5268;49.346;9.522;2023-06-24T21:33:53;22.00;93.30
10441;DHT22;5268;49.346;9.522;2023-06-24T21:38:54;21.90;93.40
10441;DHT22;5268;49.346;9.522;2023-06-24T21:43:56;21.80;93.20
10441;DHT22;5268;49.346;9.522;2023-06-24T21:49:00;21.70;93.60
10441;DHT22;5268;49.346;9.522;2023-06-24T21:54:02;21.50;94.30
